地図

経路データ

SID SEASON NUMBER BASIN SUBBASIN NAME ISO_TIME NATURE LAT LON WMO_WIND WMO_PRES WMO_AGENCY TRACK_TYPE DIST2LAND LANDFALL IFLAG USA_AGENCY USA_ATCF_ID USA_LAT USA_LON USA_RECORD USA_STATUS USA_WIND USA_PRES USA_SSHS USA_R34_NE USA_R34_SE USA_R34_SW USA_R34_NW USA_R50_NE USA_R50_SE USA_R50_SW USA_R50_NW USA_R64_NE USA_R64_SE USA_R64_SW USA_R64_NW USA_POCI USA_ROCI USA_RMW USA_EYE TOKYO_LAT TOKYO_LON TOKYO_GRADE TOKYO_WIND TOKYO_PRES TOKYO_R50_DIR TOKYO_R50_LONG TOKYO_R50_SHORT TOKYO_R30_DIR TOKYO_R30_LONG TOKYO_R30_SHORT TOKYO_LAND CMA_LAT CMA_LON CMA_CAT CMA_WIND CMA_PRES HKO_LAT HKO_LON HKO_CAT HKO_WIND HKO_PRES NEWDELHI_LAT NEWDELHI_LON NEWDELHI_GRADE NEWDELHI_WIND NEWDELHI_PRES NEWDELHI_CI NEWDELHI_DP NEWDELHI_POCI REUNION_LAT REUNION_LON REUNION_TYPE REUNION_WIND REUNION_PRES REUNION_TNUM REUNION_CI REUNION_RMW REUNION_R34_NE REUNION_R34_SE REUNION_R34_SW REUNION_R34_NW REUNION_R50_NE REUNION_R50_SE REUNION_R50_SW REUNION_R50_NW REUNION_R64_NE REUNION_R64_SE REUNION_R64_SW REUNION_R64_NW BOM_LAT BOM_LON BOM_TYPE BOM_WIND BOM_PRES BOM_TNUM BOM_CI BOM_RMW BOM_R34_NE BOM_R34_SE BOM_R34_SW BOM_R34_NW BOM_R50_NE BOM_R50_SE BOM_R50_SW BOM_R50_NW BOM_R64_NE BOM_R64_SE BOM_R64_SW BOM_R64_NW BOM_ROCI BOM_POCI BOM_EYE BOM_POS_METHOD BOM_PRES_METHOD NADI_LAT NADI_LON NADI_CAT NADI_WIND NADI_PRES WELLINGTON_LAT WELLINGTON_LON WELLINGTON_WIND WELLINGTON_PRES DS824_LAT DS824_LON DS824_STAGE DS824_WIND DS824_PRES TD9636_LAT TD9636_LON TD9636_STAGE TD9636_WIND TD9636_PRES TD9635_LAT TD9635_LON TD9635_WIND TD9635_PRES TD9635_ROCI NEUMANN_LAT NEUMANN_LON NEUMANN_CLASS NEUMANN_WIND NEUMANN_PRES MLC_LAT MLC_LON MLC_CLASS MLC_WIND MLC_PRES USA_GUST BOM_GUST BOM_GUST_PER REUNION_GUST REUNION_GUST_PER USA_SEAHGT USA_SEARAD_NE USA_SEARAD_SE USA_SEARAD_SW USA_SEARAD_NW STORM_SPEED STORM_DIR
1962343N10090 1962 110 NI BB NOT_NAMED 1962-12-09 06:00:00 TS 9.70000 89.7000 main 760 760 O________O____ jtwc_io IO131962 9.70000 89.7000 -1 9.70000 89.7000 TC 3 342
1962343N10090 1962 110 NI BB NOT_NAMED 1962-12-09 09:00:00 TS 9.86000 89.6500 main 774 774 P________P____ IO131962 9.86000 89.6500 -1 9.86000 89.6500 TC 3 343
1962343N10090 1962 110 NI BB NOT_NAMED 1962-12-09 12:00:00 TS 10.0000 89.6000 main 790 790 O________O____ jtwc_io IO131962 10.0000 89.6000 -1 10.0000 89.6000 TC 35 3 337
1962343N10090 1962 110 NI BB NOT_NAMED 1962-12-09 15:00:00 TS 10.1067 89.5444 main 805 805 P________PO___ IO131962 10.1075 89.5500 -1 10.1075 89.5500 TC 35 10.1000 89.5000 2 2 329
1962343N10090 1962 110 NI BB NOT_NAMED 1962-12-09 18:00:00 TS 10.1981 89.4819 main 812 812 O________OP___ jtwc_io IO131962 10.2000 89.5000 -1 10.2000 89.5000 TC 35 10.1906 89.4095 2 2 326
1962343N10090 1962 110 NI BB NOT_NAMED 1962-12-09 21:00:00 TS 10.2959 89.4187 main 820 811 P________PP___ IO131962 10.3000 89.4500 -1 10.3000 89.4500 TC 50 10.2850 89.3351 2 2 329
1962343N10090 1962 110 NI BB NOT_NAMED 1962-12-10 00:00:00 TS 10.3956 89.3644 main 811 810 O________OP___ jtwc_io IO131962 10.4000 89.4000 -1 10.4000 89.4000 TC 65 10.3869 89.2932 2 2 333
1962343N10090 1962 110 NI BB NOT_NAMED 1962-12-10 03:00:00 TS 10.4950 89.3134 main 810 802 P________PO___ IO131962 10.4925 89.3200 -1 10.4925 89.3200 TC 65 10.5000 89.3000 4 2 349
1962343N10090 1962 110 NI BB NOT_NAMED 1962-12-10 06:00:00 TS 10.6086 89.3222 main 802 786 O________OP___ jtwc_io IO131962 10.6000 89.3000 -1 10.6000 89.3000 TC 65 10.6259 89.3665 4 3 24
1962343N10090 1962 110 NI BB NOT_NAMED 1962-12-10 09:00:00 TS 10.7525 89.4358 main 778 755 P________PP___ IO131962 10.7500 89.4125 -1 10.7500 89.4125 TC 65 10.7575 89.4824 4 4 44
1962343N10090 1962 110 NI BB NOT_NAMED 1962-12-10 12:00:00 TS 10.8951 89.6107 main 755 732 O________OP___ jtwc_io IO131962 10.9000 89.6000 -1 10.9000 89.6000 TC 65 10.8853 89.6321 4 4 54
1962343N10090 1962 110 NI BB NOT_NAMED 1962-12-10 15:00:00 TS 11.0100 89.8000 main 732 709 P________PO___ IO131962 11.0150 89.8000 -1 11.0150 89.8000 TC 65 11.0000 89.8000 4 4 61
1962343N10090 1962 110 NI BB NOT_NAMED 1962-12-10 18:00:00 TS 11.0992 89.9855 main 709 693 O________OP___ jtwc_io IO131962 11.1000 90.0000 -1 11.1000 90.0000 TC 65 11.0975 89.9566 4 4 65
1962343N10090 1962 110 NI BB NOT_NAMED 1962-12-10 21:00:00 TS 11.1650 90.1425 main 693 679 P________PP___ IO131962 11.1575 90.1500 -1 11.1575 90.1500 TC 65 11.1800 90.1275 4 3 70
1962343N10090 1962 110 NI BB NOT_NAMED 1962-12-11 00:00:00 TS 11.2158 90.3032 main 679 657 O________OP___ jtwc_io IO131962 11.2000 90.3000 -1 11.2000 90.3000 TC 65 11.2475 90.3097 4 4 74
1962343N10090 1962 110 NI BB NOT_NAMED 1962-12-11 03:00:00 TS 11.2667 90.4950 main 657 643 P________PO___ IO131962 11.2500 90.4925 -1 11.2500 90.4925 TC 65 11.3000 90.5000 4 4 76
1962343N10090 1962 110 NI BB NOT_NAMED 1962-12-11 06:00:00 TS 11.3145 90.7003 main 643 621 O________OP___ jtwc_io IO131962 11.3000 90.7000 -1 11.3000 90.7000 TC 65 11.3435 90.7010 4 4 77
1962343N10090 1962 110 NI BB NOT_NAMED 1962-12-11 09:00:00 TS 11.3625 90.9025 main 621 608 P________PP___ IO131962 11.3575 90.9000 -1 11.3575 90.9000 TC 65 11.3725 90.9075 4 4 78
1962343N10090 1962 110 NI BB NOT_NAMED 1962-12-11 12:00:00 TS 11.3968 91.1035 main 608 595 O________OP___ jtwc_io IO131962 11.4000 91.1000 -1 11.4000 91.1000 TC 65 11.3903 91.1103 4 4 84
1962343N10090 1962 110 NI BB NOT_NAMED 1962-12-11 15:00:00 TS 11.4050 91.3100 main 595 583 P________PO___ IO131962 11.4075 91.3150 -1 11.4075 91.3150 TC 65 11.4000 91.3000 4 4 89
1962343N10090 1962 110 NI BB NOT_NAMED 1962-12-11 18:00:00 TS 11.4023 91.4814 main 583 578 O________OP___ jtwc_io IO131962 11.4000 91.5000 -1 11.4000 91.5000 TC 65 11.4070 91.4441 4 3 91
1962343N10090 1962 110 NI BB NOT_NAMED 1962-12-11 21:00:00 TS 11.4024 91.5925 main 578 572 P________PP___ IO131962 11.4000 91.6000 -1 11.4000 91.6000 TC 65 11.4073 91.5775 4 2 90
1962343N10090 1962 110 NI BB NOT_NAMED 1962-12-12 00:00:00 TS 11.4013 91.7074 main 572 561 O________OP___ jtwc_io IO131962 11.4000 91.7000 -1 11.4000 91.7000 TC 65 11.4039 91.7222 4 3 90
1962343N10090 1962 110 NI BB NOT_NAMED 1962-12-12 03:00:00 TS 11.4000 91.8800 main 561 551 P________PO___ IO131962 11.4000 91.8700 -1 11.4000 91.8700 TC 50 11.4000 91.9000 4 4 90
1962343N10090 1962 110 NI BB NOT_NAMED 1962-12-12 06:00:00 TS 11.3986 92.1103 main 551 537 O________OP___ jtwc_io IO131962 11.4000 92.1000 -1 11.4000 92.1000 TC 35 11.3959 92.1310 4 5 90
1962343N10090 1962 110 NI BB NOT_NAMED 1962-12-12 09:00:00 TS 11.3975 92.3892 main 537 525 P________PP___ IO131962 11.4000 92.3850 -1 11.4000 92.3850 TC 30 11.3925 92.3976 4 6 90
1962343N10090 1962 110 NI BB NOT_NAMED 1962-12-12 12:00:00 TS 11.3976 92.6968 main 525 515 O________OP___ jtwc_io IO131962 11.4000 92.7000 -1 11.4000 92.7000 TC 25 11.3928 92.6904 4 6 90
1962343N10090 1962 110 NI BB NOT_NAMED 1962-12-12 15:00:00 TS 11.3950 92.9950 main 515 506 P________PO___ IO131962 11.3924 92.9925 -1 11.3924 92.9925 TC 25 11.4000 93.0000 1 6 89
1962343N10090 1962 110 NI BB NOT_NAMED 1962-12-12 18:00:00 TS 11.4066 93.3074 main 506 500 O________OP___ jtwc_io IO131962 11.4000 93.3000 -1 11.4000 93.3000 TC 25 11.4164 93.3184 1 6 86
1962343N10090 1962 110 NI BB NOT_NAMED 1962-12-12 21:00:00 TS 11.4402 93.6410 main 500 482 P________PP___ IO131962 11.4401 93.6400 -1 11.4401 93.6400 TC 25 11.4403 93.6424 1 7 83
1962343N10090 1962 110 NI BB NOT_NAMED 1962-12-13 00:00:00 TS 11.4845 93.9851 main 482 459 O________OP___ jtwc_io IO131962 11.5000 94.0000 -1 11.5000 94.0000 TC 25 11.4690 93.9702 1 6 85
1962343N10090 1962 110 NI BB NOT_NAMED 1962-12-13 03:00:00 NR 11.5000 94.3000 main 459 __________O___ IO131962 -1 TC 11.5000 94.3000 1 6 87

IBTrACS Databaseについて

本データベースは、米国NOAAが公開する1842年以降の世界の熱帯低気圧のベストトラックデータアーカイブInternational Best Track Archive for Climate Stewardship (IBTrACS)を、ウェブで閲覧しやすい形式に変換したものです。

最終更新日:2021-11-26